Time;durP1;ratioP1;P1;durP2;ratioP2;P2;SDS_P1;SDS_P2;PMS_P1;PMS_P2;Temp;Humidity;BMP_temperature;BMP_pressure;BME280_temperature;BME280_humidity;BME280_pressure;Samples;Min_cycle;Max_cycle;Signal;HPM_P1;HPM_P2
2021/06/01 00:01:25;;;;;;;7.10;0.90;;;;;;;;;;4904455;29;20416;-59
2021/06/01 00:03:51;;;;;;;6.10;0.80;;;;;;;;;;4906857;29;20601;-59
2021/06/01 00:06:17;;;;;;;5.57;0.70;;;;;;;;;;4904842;29;20039;-59
2021/06/01 00:08:44;;;;;;;2.97;0.68;;;;;;;;;;4907718;29;20522;-59
2021/06/01 00:11:10;;;;;;;6.65;0.82;;;;;;;;;;4914953;29;20535;-59
2021/06/01 00:13:36;;;;;;;6.68;0.80;;;;;;;;;;4910493;29;20408;-58
2021/06/01 00:16:02;;;;;;;5.85;0.70;;;;;;;;;;4913081;29;20059;-59
2021/06/01 00:18:28;;;;;;;5.30;0.80;;;;;;;;;;4914169;29;20039;-59
2021/06/01 00:20:54;;;;;;;4.28;0.90;;;;;;;;;;4915473;29;20051;-59
2021/06/01 00:23:20;;;;;;;7.25;1.15;;;;;;;;;;4914166;29;20052;-59
2021/06/01 00:25:46;;;;;;;7.75;0.95;;;;;;;;;;4895905;29;20056;-60
2021/06/01 00:28:12;;;;;;;4.75;0.80;;;;;;;;;;4900749;29;20040;-59
2021/06/01 00:30:40;;;;;;;8.27;0.93;;;;;;;;;;4914570;29;20050;-60
2021/06/01 00:33:06;;;;;;;4.38;1.10;;;;;;;;;;4912967;29;20652;-60
2021/06/01 00:35:34;;;;;;;4.95;0.95;;;;;;;;;;4910374;29;20157;-59
2021/06/01 00:38:00;;;;;;;7.15;0.90;;;;;;;;;;4914796;29;20063;-60
2021/06/01 00:40:26;;;;;;;3.58;0.80;;;;;;;;;;4914002;29;20181;-58
2021/06/01 00:43:03;;;;;;;4.45;0.80;;;;;;;;;;4915631;29;20047;-59
2021/06/01 00:45:29;;;;;;;4.30;0.85;;;;;;;;;;4914960;29;20049;-59
2021/06/01 00:47:55;;;;;;;11.43;1.20;;;;;;;;;;4915075;29;20039;-59
2021/06/01 00:50:23;;;;;;;4.45;0.80;;;;;;;;;;4913998;29;20135;-59
2021/06/01 00:52:49;;;;;;;5.72;0.80;;;;;;;;;;4905340;29;20040;-60
2021/06/01 00:55:15;;;;;;;10.13;1.55;;;;;;;;;;4912991;29;20054;-60
2021/06/01 00:57:41;;;;;;;4.80;0.80;;;;;;;;;;4910924;29;20077;-60
2021/06/01 01:00:24;;;;;;;6.30;0.82;;;;;;;;;;4912866;29;20087;-59
2021/06/01 01:02:50;;;;;;;4.95;0.70;;;;;;;;;;4902336;29;20134;-62
2021/06/01 01:05:17;;;;;;;2.95;0.70;;;;;;;;;;4917932;29;20142;-62
2021/06/01 01:07:47;;;;;;;5.80;0.88;;;;;;;;;;4912612;29;20198;-60
2021/06/01 01:10:16;;;;;;;4.28;0.70;;;;;;;;;;4911049;29;20508;-61
2021/06/01 01:12:56;;;;;;;5.88;0.80;;;;;;;;;;4902383;28;20155;-62
2021/06/01 01:15:22;;;;;;;10.48;0.98;;;;;;;;;;4905713;29;20038;-62
2021/06/01 01:17:50;;;;;;;8.85;0.90;;;;;;;;;;4913925;29;20060;-61
2021/06/01 01:20:39;;;;;;;6.07;1.25;;;;;;;;;;4914114;29;20147;-61
2021/06/01 01:23:10;;;;;;;11.48;1.77;;;;;;;;;;4911057;29;20927;-62
2021/06/01 01:25:46;;;;;;;6.53;0.88;;;;;;;;;;4911928;29;20778;-63
2021/06/01 01:28:15;;;;;;;5.10;0.88;;;;;;;;;;4911960;29;20038;-62
2021/06/01 01:30:45;;;;;;;5.22;0.98;;;;;;;;;;4914377;29;20039;-61
2021/06/01 01:33:12;;;;;;;4.43;0.82;;;;;;;;;;4918802;29;20707;-62
2021/06/01 01:35:40;;;;;;;5.03;0.80;;;;;;;;;;4916782;29;20139;-61
2021/06/01 01:38:06;;;;;;;6.13;0.90;;;;;;;;;;4916119;29;20036;-61
2021/06/01 01:40:33;;;;;;;5.85;1.10;;;;;;;;;;4915904;29;20078;-61
2021/06/01 01:43:03;;;;;;;6.43;0.82;;;;;;;;;;4917979;29;20170;-61
2021/06/01 01:45:31;;;;;;;5.05;0.90;;;;;;;;;;4918274;29;20410;-62
2021/06/01 01:50:44;;;;;;;6.13;0.77;;;;;;;;;;4918197;29;20083;-62
2021/06/01 01:53:16;;;;;;;6.57;0.90;;;;;;;;;;4920723;29;20059;-60
2021/06/01 01:55:45;;;;;;;3.92;0.80;;;;;;;;;;4919285;29;20059;-62
2021/06/01 01:58:12;;;;;;;8.38;1.65;;;;;;;;;;4918196;29;20095;-62
2021/06/01 02:00:38;;;;;;;6.45;1.30;;;;;;;;;;4916502;29;20047;-62
2021/06/01 02:03:04;;;;;;;9.75;2.05;;;;;;;;;;4918261;29;20545;-62
2021/06/01 02:05:30;;;;;;;7.05;1.80;;;;;;;;;;4918531;29;20043;-62
2021/06/01 02:08:01;;;;;;;3.35;0.73;;;;;;;;;;4918787;29;20043;-63
2021/06/01 02:10:27;;;;;;;3.42;0.80;;;;;;;;;;4920946;29;20063;-63
2021/06/01 02:12:53;;;;;;;4.47;0.80;;;;;;;;;;4913285;29;20184;-61
2021/06/01 02:15:19;;;;;;;3.90;0.90;;;;;;;;;;4919946;29;20042;-61
2021/06/01 02:17:45;;;;;;;4.65;0.80;;;;;;;;;;4919341;29;20039;-61
2021/06/01 02:20:11;;;;;;;5.18;0.70;;;;;;;;;;4919195;29;20059;-62
2021/06/01 02:25:14;;;;;;;4.95;0.75;;;;;;;;;;4919143;29;20039;-62
2021/06/01 02:27:58;;;;;;;2.55;0.77;;;;;;;;;;4918672;29;20401;-62
2021/06/01 02:30:44;;;;;;;22.95;1.30;;;;;;;;;;4919033;29;20044;-61
2021/06/01 02:33:10;;;;;;;4.63;0.80;;;;;;;;;;4910058;29;20054;-60
2021/06/01 02:35:40;;;;;;;9.20;1.20;;;;;;;;;;4901736;29;20474;-62
2021/06/01 02:38:07;;;;;;;11.13;1.40;;;;;;;;;;4918526;29;20036;-62
2021/06/01 02:40:34;;;;;;;4.65;0.88;;;;;;;;;;4900747;29;20046;-62
2021/06/01 02:43:01;;;;;;;5.20;0.80;;;;;;;;;;4918079;29;20079;-61
2021/06/01 02:45:27;;;;;;;6.25;0.80;;;;;;;;;;4917419;29;20261;-62
2021/06/01 02:47:53;;;;;;;13.10;2.65;;;;;;;;;;4918243;29;20074;-62
2021/06/01 02:50:20;;;;;;;9.15;1.10;;;;;;;;;;4918302;29;20138;-62
2021/06/01 02:52:48;;;;;;;10.32;1.23;;;;;;;;;;4909459;29;20048;-62
2021/06/01 02:55:15;;;;;;;8.00;1.55;;;;;;;;;;4918709;29;20028;-62
2021/06/01 02:57:41;;;;;;;6.85;1.10;;;;;;;;;;4918815;29;20040;-62
2021/06/01 03:00:08;;;;;;;7.05;0.80;;;;;;;;;;4902281;29;20392;-63
2021/06/01 03:02:33;;;;;;;8.85;1.45;;;;;;;;;;4919485;29;20066;-60
2021/06/01 03:05:00;;;;;;;6.43;0.90;;;;;;;;;;4918500;29;20044;-61
2021/06/01 03:07:26;;;;;;;13.02;1.10;;;;;;;;;;4920327;29;20050;-61
2021/06/01 03:09:51;;;;;;;13.65;1.25;;;;;;;;;;4918649;29;20052;-63
2021/06/01 03:14:59;;;;;;;9.45;1.00;;;;;;;;;;4919685;29;20040;-62
2021/06/01 03:17:25;;;;;;;8.55;1.60;;;;;;;;;;4922718;29;20488;-61
2021/06/01 03:19:51;;;;;;;5.03;1.02;;;;;;;;;;4919767;29;20039;-61
2021/06/01 03:22:16;;;;;;;5.97;1.30;;;;;;;;;;4918370;29;20115;-61
2021/06/01 03:24:42;;;;;;;12.48;1.45;;;;;;;;;;4919064;29;20078;-62
2021/06/01 03:27:08;;;;;;;10.70;1.40;;;;;;;;;;4919580;29;20051;-62
2021/06/01 03:29:34;;;;;;;5.60;1.85;;;;;;;;;;4916621;29;20605;-59
2021/06/01 03:32:01;;;;;;;7.75;2.28;;;;;;;;;;4917467;29;20131;-62
2021/06/01 03:34:26;;;;;;;10.70;1.85;;;;;;;;;;4918538;29;20039;-62
2021/06/01 03:36:52;;;;;;;10.60;1.45;;;;;;;;;;4918899;29;20062;-63
2021/06/01 03:39:20;;;;;;;7.43;1.20;;;;;;;;;;4918452;29;20388;-60
2021/06/01 03:41:47;;;;;;;9.32;1.25;;;;;;;;;;4919906;29;20052;-60
2021/06/01 03:44:13;;;;;;;12.35;1.38;;;;;;;;;;4916860;29;20047;-61
2021/06/01 03:46:39;;;;;;;9.70;1.23;;;;;;;;;;4915628;29;20039;-61
2021/06/01 03:49:04;;;;;;;9.52;1.48;;;;;;;;;;4918849;29;20696;-61
2021/06/01 03:51:30;;;;;;;10.07;1.58;;;;;;;;;;4920510;29;20040;-60
2021/06/01 03:53:59;;;;;;;10.77;1.35;;;;;;;;;;4917214;29;20390;-63
2021/06/01 03:56:28;;;;;;;14.57;1.95;;;;;;;;;;4920051;29;20146;-63
2021/06/01 03:58:54;;;;;;;9.70;1.40;;;;;;;;;;4916105;29;20071;-60
2021/06/01 04:01:20;;;;;;;11.50;3.47;;;;;;;;;;4915401;29;20578;-58
2021/06/01 04:03:46;;;;;;;13.55;2.30;;;;;;;;;;4914937;29;20062;-57
2021/06/01 04:06:12;;;;;;;9.18;1.58;;;;;;;;;;4915607;29;20040;-57
2021/06/01 04:08:39;;;;;;;12.43;1.70;;;;;;;;;;4912410;29;20107;-57
2021/06/01 04:11:05;;;;;;;9.68;1.40;;;;;;;;;;4912693;29;20047;-55
2021/06/01 04:13:31;;;;;;;16.77;2.30;;;;;;;;;;4913717;29;20387;-56
2021/06/01 04:15:56;;;;;;;13.80;2.17;;;;;;;;;;4913415;29;20039;-56
2021/06/01 04:18:22;;;;;;;10.18;2.03;;;;;;;;;;4913348;29;20505;-56
2021/06/01 04:20:48;;;;;;;12.23;1.58;;;;;;;;;;4915310;29;20044;-57
2021/06/01 04:23:14;;;;;;;10.25;2.33;;;;;;;;;;4913142;29;20052;-57
2021/06/01 04:25:40;;;;;;;15.45;1.98;;;;;;;;;;4914080;29;20510;-57
2021/06/01 04:28:06;;;;;;;18.45;1.55;;;;;;;;;;4914165;29;20052;-55
2021/06/01 04:30:32;;;;;;;13.88;1.40;;;;;;;;;;4913759;29;20192;-57
2021/06/01 04:32:58;;;;;;;18.02;1.40;;;;;;;;;;4915317;29;20083;-58
2021/06/01 04:35:25;;;;;;;12.82;1.50;;;;;;;;;;4914061;29;20043;-53
2021/06/01 04:37:51;;;;;;;9.38;1.23;;;;;;;;;;4914809;29;20054;-57
2021/06/01 04:40:17;;;;;;;7.38;1.30;;;;;;;;;;4915688;29;20051;-55
2021/06/01 04:42:43;;;;;;;6.07;1.23;;;;;;;;;;4915817;29;20539;-56
2021/06/01 04:45:09;;;;;;;9.02;1.48;;;;;;;;;;4912922;29;20418;-54
2021/06/01 04:47:35;;;;;;;10.55;1.92;;;;;;;;;;4915049;29;20048;-57
2021/06/01 04:50:01;;;;;;;10.95;2.10;;;;;;;;;;4914092;29;20062;-57
2021/06/01 04:52:27;;;;;;;7.35;2.13;;;;;;;;;;4914871;29;20537;-53
2021/06/01 04:54:52;;;;;;;14.32;2.63;;;;;;;;;;4916534;29;20040;-57
2021/06/01 04:57:18;;;;;;;10.90;2.75;;;;;;;;;;4894601;29;20523;-56
2021/06/01 04:59:45;;;;;;;14.48;3.33;;;;;;;;;;4916415;29;20047;-54
2021/06/01 05:02:11;;;;;;;15.50;3.88;;;;;;;;;;4917057;29;20108;-53
2021/06/01 05:04:36;;;;;;;18.05;4.55;;;;;;;;;;4915952;29;20040;-55
2021/06/01 05:07:02;;;;;;;20.02;5.13;;;;;;;;;;4917330;29;20135;-52
2021/06/01 05:09:28;;;;;;;19.17;5.65;;;;;;;;;;4917410;29;20118;-54
2021/06/01 05:11:54;;;;;;;11.27;3.80;;;;;;;;;;4919410;29;20398;-55
2021/06/01 05:14:20;;;;;;;11.80;3.47;;;;;;;;;;4919251;29;20712;-52
2021/06/01 05:16:46;;;;;;;11.38;3.33;;;;;;;;;;4919755;29;20050;-55
2021/06/01 05:19:11;;;;;;;10.48;2.55;;;;;;;;;;4916789;29;20047;-53
2021/06/01 05:21:37;;;;;;;10.07;2.50;;;;;;;;;;4917763;29;20054;-54
2021/06/01 05:24:03;;;;;;;10.55;1.92;;;;;;;;;;4917875;29;20052;-55
2021/06/01 05:26:29;;;;;;;8.93;1.92;;;;;;;;;;4916150;29;20043;-56
2021/06/01 05:28:55;;;;;;;8.55;1.83;;;;;;;;;;4897586;29;20492;-55
2021/06/01 05:31:30;;;;;;;6.35;1.50;;;;;;;;;;4914463;29;20044;-55
2021/06/01 05:34:01;;;;;;;4.88;1.20;;;;;;;;;;4917546;29;20044;-55
2021/06/01 05:36:27;;;;;;;11.73;1.17;;;;;;;;;;4916695;29;20074;-55
2021/06/01 05:38:54;;;;;;;10.43;1.60;;;;;;;;;;4920353;29;20508;-55
2021/06/01 05:41:20;;;;;;;7.65;1.20;;;;;;;;;;4917593;29;20046;-56
2021/06/01 05:43:46;;;;;;;8.52;1.25;;;;;;;;;;4901021;29;20044;-53
2021/06/01 05:46:12;;;;;;;8.30;1.10;;;;;;;;;;4918416;29;20131;-56
2021/06/01 05:48:38;;;;;;;8.77;1.10;;;;;;;;;;4918290;29;20052;-54
2021/06/01 05:51:04;;;;;;;6.50;1.17;;;;;;;;;;4915864;29;21298;-56
2021/06/01 05:53:30;;;;;;;7.95;1.27;;;;;;;;;;4916851;29;20086;-55
2021/06/01 05:55:56;;;;;;;8.43;1.45;;;;;;;;;;4918035;29;20047;-55
2021/06/01 05:58:22;;;;;;;9.48;1.60;;;;;;;;;;4917266;29;20135;-56
2021/06/01 06:00:49;;;;;;;10.57;1.60;;;;;;;;;;4919911;29;20091;-56
2021/06/01 06:03:15;;;;;;;9.32;1.70;;;;;;;;;;4918062;29;20044;-54
2021/06/01 06:05:42;;;;;;;7.22;2.03;;;;;;;;;;4915451;29;20190;-56
2021/06/01 06:08:09;;;;;;;9.55;1.42;;;;;;;;;;4917911;29;20134;-54
2021/06/01 06:10:35;;;;;;;10.98;1.70;;;;;;;;;;4917556;29;20165;-55
2021/06/01 06:13:01;;;;;;;3.67;1.30;;;;;;;;;;4918729;29;20706;-55
2021/06/01 06:15:28;;;;;;;10.65;1.70;;;;;;;;;;4916415;29;20047;-53
2021/06/01 06:17:58;;;;;;;7.28;1.30;;;;;;;;;;4917074;29;20044;-54
2021/06/01 06:20:24;;;;;;;6.63;1.50;;;;;;;;;;4917068;29;20039;-56
2021/06/01 06:22:50;;;;;;;8.48;1.17;;;;;;;;;;4916376;29;20886;-56
2021/06/01 06:25:16;;;;;;;10.07;1.65;;;;;;;;;;4917589;29;20101;-56
2021/06/01 06:27:41;;;;;;;8.13;1.55;;;;;;;;;;4914758;29;20055;-56
2021/06/01 06:30:08;;;;;;;8.93;1.52;;;;;;;;;;4919754;29;20046;-55
2021/06/01 06:32:34;;;;;;;6.50;1.20;;;;;;;;;;4916316;29;20120;-56
2021/06/01 06:35:00;;;;;;;8.43;1.55;;;;;;;;;;4898532;29;20132;-57
2021/06/01 06:37:26;;;;;;;14.75;2.10;;;;;;;;;;4917302;29;20035;-56
2021/06/01 06:39:52;;;;;;;14.52;1.50;;;;;;;;;;4916480;29;20040;-56
2021/06/01 06:42:18;;;;;;;10.07;1.50;;;;;;;;;;4916972;29;21955;-57
2021/06/01 06:44:48;;;;;;;10.00;1.73;;;;;;;;;;4918823;29;20099;-57
2021/06/01 06:47:22;;;;;;;10.63;1.55;;;;;;;;;;4918572;29;20039;-56
2021/06/01 06:49:48;;;;;;;10.90;1.48;;;;;;;;;;4916347;29;20437;-54
2021/06/01 06:52:14;;;;;;;9.38;2.08;;;;;;;;;;4919505;29;20119;-55
2021/06/01 06:54:40;;;;;;;7.93;1.45;;;;;;;;;;4917924;29;22100;-56
2021/06/01 06:57:06;;;;;;;5.40;1.63;;;;;;;;;;4898452;29;20044;-54
2021/06/01 06:59:32;;;;;;;13.57;1.90;;;;;;;;;;4917118;29;20048;-54
2021/06/01 07:01:58;;;;;;;6.97;1.55;;;;;;;;;;4919736;29;20052;-54
2021/06/01 07:04:25;;;;;;;12.73;1.70;;;;;;;;;;4918241;29;20071;-55
2021/06/01 07:06:52;;;;;;;15.80;1.85;;;;;;;;;;4917545;29;20043;-52
2021/06/01 07:09:18;;;;;;;6.75;1.75;;;;;;;;;;4916873;29;20046;-56
2021/06/01 07:11:44;;;;;;;7.95;1.80;;;;;;;;;;4917957;29;20511;-56
2021/06/01 07:14:09;;;;;;;13.38;2.10;;;;;;;;;;4914696;29;20040;-55
2021/06/01 07:16:35;;;;;;;15.43;2.10;;;;;;;;;;4915063;29;20047;-56
2021/06/01 07:19:01;;;;;;;8.05;1.90;;;;;;;;;;4917436;29;20039;-55
2021/06/01 07:21:27;;;;;;;12.52;2.08;;;;;;;;;;4917306;29;20044;-55
2021/06/01 07:23:53;;;;;;;7.78;1.70;;;;;;;;;;4918455;29;20507;-55
2021/06/01 07:26:18;;;;;;;7.68;1.80;;;;;;;;;;4917797;29;20100;-55
2021/06/01 07:28:44;;;;;;;11.70;1.83;;;;;;;;;;4916299;29;20050;-56
2021/06/01 07:31:15;;;;;;;14.68;1.98;;;;;;;;;;4915779;29;20483;-55
2021/06/01 07:33:41;;;;;;;8.88;1.60;;;;;;;;;;4916306;29;20620;-55
2021/06/01 07:36:07;;;;;;;4.47;1.50;;;;;;;;;;4915853;29;20047;-54
2021/06/01 07:38:35;;;;;;;10.73;1.55;;;;;;;;;;4917221;29;20043;-54
2021/06/01 07:41:02;;;;;;;5.45;1.40;;;;;;;;;;4917682;29;20048;-55
2021/06/01 07:43:28;;;;;;;8.15;1.60;;;;;;;;;;4916506;29;20119;-55
2021/06/01 07:45:54;;;;;;;9.65;1.70;;;;;;;;;;4917520;29;20049;-56
2021/06/01 07:48:19;;;;;;;10.25;2.10;;;;;;;;;;4914795;29;20043;-55
2021/06/01 07:50:45;;;;;;;7.03;1.42;;;;;;;;;;4914714;29;20126;-54
2021/06/01 07:53:11;;;;;;;11.30;2.10;;;;;;;;;;4915773;29;20493;-56
2021/06/01 07:55:37;;;;;;;10.10;1.80;;;;;;;;;;4914767;29;20055;-55
2021/06/01 07:58:03;;;;;;;13.52;1.48;;;;;;;;;;4916769;29;20048;-53
2021/06/01 08:00:28;;;;;;;8.38;1.40;;;;;;;;;;4915454;29;20229;-54
2021/06/01 08:02:54;;;;;;;9.10;1.45;;;;;;;;;;4915467;29;20452;-57
2021/06/01 08:05:20;;;;;;;10.40;1.58;;;;;;;;;;4915087;29;20043;-57
2021/06/01 08:07:48;;;;;;;10.18;1.60;;;;;;;;;;4916089;29;20440;-54
2021/06/01 08:10:20;;;;;;;10.15;1.58;;;;;;;;;;4918069;29;20044;-55
2021/06/01 08:12:46;;;;;;;8.85;1.33;;;;;;;;;;4916439;29;20039;-56
2021/06/01 08:15:12;;;;;;;9.32;1.67;;;;;;;;;;4915803;29;20051;-53
2021/06/01 08:17:38;;;;;;;9.98;1.63;;;;;;;;;;4913947;29;20040;-56
2021/06/01 08:22:49;;;;;;;10.52;1.70;;;;;;;;;;4916793;29;20066;-53
2021/06/01 08:25:14;;;;;;;8.00;1.60;;;;;;;;;;4916202;29;20044;-55
2021/06/01 08:27:40;;;;;;;11.70;1.70;;;;;;;;;;4914314;29;20479;-55
2021/06/01 08:30:07;;;;;;;8.60;1.60;;;;;;;;;;4915437;29;20036;-56
2021/06/01 08:32:33;;;;;;;8.85;1.77;;;;;;;;;;4915412;29;20046;-54
2021/06/01 08:34:59;;;;;;;8.63;1.70;;;;;;;;;;4916525;29;20197;-54
2021/06/01 08:37:24;;;;;;;10.73;1.98;;;;;;;;;;4914373;29;20147;-56
2021/06/01 08:39:50;;;;;;;8.75;1.52;;;;;;;;;;4915428;29;20629;-55
2021/06/01 08:42:16;;;;;;;16.95;2.25;;;;;;;;;;4921138;29;20564;-55
2021/06/01 08:44:42;;;;;;;9.27;2.28;;;;;;;;;;4918974;29;20071;-56
2021/06/01 08:47:08;;;;;;;11.38;1.75;;;;;;;;;;4918920;29;20601;-55
2021/06/01 08:49:35;;;;;;;6.13;1.60;;;;;;;;;;4919840;29;20099;-55
2021/06/01 08:52:01;;;;;;;9.75;1.52;;;;;;;;;;4920034;29;20079;-55
2021/06/01 08:54:28;;;;;;;10.50;1.92;;;;;;;;;;4918382;29;20530;-55
2021/06/01 08:56:53;;;;;;;12.40;1.55;;;;;;;;;;4921019;29;20091;-54
2021/06/01 08:59:19;;;;;;;13.43;1.83;;;;;;;;;;4919980;29;20040;-55
2021/06/01 09:01:45;;;;;;;10.85;1.60;;;;;;;;;;4919947;29;20052;-54
2021/06/01 09:04:12;;;;;;;9.38;1.80;;;;;;;;;;4920009;29;20039;-55
2021/06/01 09:06:45;;;;;;;14.35;1.65;;;;;;;;;;4918043;29;20040;-56
2021/06/01 09:21:02;;;;;;;6.75;1.40;;;;;;;;;;4917910;29;20123;-56
2021/06/01 09:22:44;;;;;;;7.57;1.10;;;;;;;;;;4919795;29;20781;-56
2021/06/01 09:25:17;;;;;;;9.18;1.60;;;;;;;;;;4922154;29;20073;-55
2021/06/01 09:27:46;;;;;;;7.43;1.52;;;;;;;;;;4919610;29;20468;-55
2021/06/01 09:30:31;;;;;;;7.18;1.20;;;;;;;;;;4920905;29;20063;-56
2021/06/01 09:32:57;;;;;;;7.28;1.60;;;;;;;;;;4917551;29;20563;-55
2021/06/01 09:35:39;;;;;;;9.02;1.85;;;;;;;;;;4918678;29;20048;-55
2021/06/01 09:38:05;;;;;;;10.38;1.52;;;;;;;;;;4916460;29;20047;-56
2021/06/01 09:40:31;;;;;;;6.78;1.75;;;;;;;;;;4919076;29;20044;-55
2021/06/01 09:42:57;;;;;;;6.82;1.65;;;;;;;;;;4918343;29;20867;-56
2021/06/01 09:45:23;;;;;;;5.72;1.33;;;;;;;;;;4920222;29;20197;-57
2021/06/01 09:47:51;;;;;;;6.10;1.75;;;;;;;;;;4920004;29;20158;-57
2021/06/01 09:50:39;;;;;;;10.13;2.35;;;;;;;;;;4918988;29;20131;-54
2021/06/01 09:53:20;;;;;;;6.40;1.63;;;;;;;;;;4917903;29;20544;-56
2021/06/01 09:55:47;;;;;;;11.05;1.85;;;;;;;;;;4899987;29;20052;-53
2021/06/01 09:58:16;;;;;;;6.68;1.60;;;;;;;;;;4899785;29;20090;-57
2021/06/01 10:00:43;;;;;;;6.72;1.70;;;;;;;;;;4900169;29;20040;-56
2021/06/01 10:03:17;;;;;;;9.75;1.80;;;;;;;;;;4900858;29;20087;-55
2021/06/01 10:05:43;;;;;;;11.30;1.73;;;;;;;;;;4917466;29;20047;-56
2021/06/01 10:08:10;;;;;;;10.52;1.80;;;;;;;;;;4919516;29;20467;-56
2021/06/01 10:10:36;;;;;;;8.65;1.85;;;;;;;;;;4916733;29;20067;-55
2021/06/01 10:13:06;;;;;;;7.35;1.70;;;;;;;;;;4918797;29;20040;-56
2021/06/01 10:15:33;;;;;;;6.97;1.90;;;;;;;;;;4915729;29;20058;-56
2021/06/01 10:17:59;;;;;;;12.40;2.05;;;;;;;;;;4918556;29;20234;-53
2021/06/01 10:20:26;;;;;;;7.53;1.85;;;;;;;;;;4919155;29;20040;-56
2021/06/01 10:22:53;;;;;;;9.05;1.85;;;;;;;;;;4918540;29;20059;-56
2021/06/01 10:25:19;;;;;;;6.85;1.80;;;;;;;;;;4917846;29;20044;-55
2021/06/01 10:27:45;;;;;;;9.75;2.05;;;;;;;;;;4917603;29;20039;-55
2021/06/01 10:30:11;;;;;;;12.80;2.28;;;;;;;;;;4919153;29;20050;-55
2021/06/01 10:32:49;;;;;;;7.28;1.98;;;;;;;;;;4917858;29;20365;-56
2021/06/01 10:35:18;;;;;;;10.05;1.90;;;;;;;;;;4917269;29;20044;-56
2021/06/01 10:48:49;;;;;;;10.35;2.33;;;;;;;;;;4917358;29;20099;-55
2021/06/01 10:51:28;;;;;;;8.85;2.10;;;;;;;;;;4918619;29;20044;-54
2021/06/01 10:53:54;;;;;;;10.13;2.38;;;;;;;;;;4909490;29;20091;-56
2021/06/01 10:56:20;;;;;;;11.60;2.25;;;;;;;;;;4917799;29;21011;-56
2021/06/01 10:58:53;;;;;;;10.98;1.98;;;;;;;;;;4920296;29;20144;-55
2021/06/01 11:04:13;;;;;;;13.25;2.00;;;;;;;;;;4920042;29;19929;-54
2021/06/01 11:06:56;;;;;;;11.88;2.70;;;;;;;;;;4924783;29;20063;-56
2021/06/01 11:09:34;;;;;;;15.32;1.98;;;;;;;;;;4927144;29;20074;-54
2021/06/01 11:12:00;;;;;;;15.63;2.40;;;;;;;;;;4927487;29;20455;-56
2021/06/01 11:14:30;;;;;;;11.65;2.10;;;;;;;;;;4921661;29;20055;-56
2021/06/01 11:16:57;;;;;;;11.02;2.25;;;;;;;;;;4918713;29;20546;-55
2021/06/01 11:19:28;;;;;;;13.02;2.15;;;;;;;;;;4917459;29;20051;-55
2021/06/01 11:22:05;;;;;;;11.70;2.25;;;;;;;;;;4917754;29;20056;-56
2021/06/01 11:25:07;;;;;;;16.67;2.85;;;;;;;;;;4914811;29;20039;-54
2021/06/01 11:33:19;;;;;;;14.65;2.40;;;;;;;;;;4917238;29;20054;-53
2021/06/01 11:35:59;;;;;;;14.82;2.28;;;;;;;;;;5062334;27;20391;-55
2021/06/01 11:43:48;;;;;;;15.45;2.47;;;;;;;;;;5057492;28;20058;-54
2021/06/01 11:51:47;;;;;;;10.43;1.90;;;;;;;;;;5037206;28;20180;-58
2021/06/01 11:54:15;;;;;;;13.95;2.25;;;;;;;;;;5034715;28;20550;-56
2021/06/01 11:56:54;;;;;;;12.43;2.35;;;;;;;;;;5036746;28;20052;-56
2021/06/01 12:18:41;;;;;;;13.57;2.40;;;;;;;;;;5054790;28;20165;-59
2021/06/01 12:21:33;;;;;;;14.65;2.30;;;;;;;;;;5055871;28;20045;-57
2021/06/01 12:24:01;;;;;;;10.32;1.95;;;;;;;;;;5050106;28;20043;-53
2021/06/01 12:26:59;;;;;;;16.42;2.15;;;;;;;;;;5055207;28;20090;-56
2021/06/01 12:32:29;;;;;;;16.52;2.40;;;;;;;;;;5054431;28;20050;-54
2021/06/01 12:43:15;;;;;;;9.85;1.92;;;;;;;;;;5055861;28;20178;-55
2021/06/01 12:46:08;;;;;;;20.13;2.75;;;;;;;;;;5050269;28;20423;-55
2021/06/01 13:21:01;;;;;;;13.80;1.98;;;;;;;;;;5043684;28;20098;-56
2021/06/01 13:32:07;;;;;;;13.55;2.40;;;;;;;;;;5042973;28;20036;-59
2021/06/01 13:40:47;;;;;;;8.75;1.80;;;;;;;;;;4994330;28;20071;-56
2021/06/01 13:46:09;;;;;;;15.40;1.90;;;;;;;;;;5043281;28;20424;-56
2021/06/01 13:56:16;;;;;;;17.23;2.20;;;;;;;;;;5042502;28;20083;-56
2021/06/01 13:58:58;;;;;;;20.90;2.72;;;;;;;;;;5039646;28;20056;-57
2021/06/01 14:09:48;;;;;;;34.25;2.58;;;;;;;;;;5038078;28;20087;-57
2021/06/01 14:31:22;;;;;;;10.20;1.55;;;;;;;;;;5041206;28;20051;-55
2021/06/01 14:56:02;;;;;;;6.45;1.00;;;;;;;;;;5043730;28;20103;-53
2021/06/01 15:22:35;;;;;;;4.85;1.00;;;;;;;;;;5042231;28;20040;-53
2021/06/01 15:50:16;;;;;;;2.72;0.63;;;;;;;;;;5041493;28;20094;-57
2021/06/01 16:12:04;;;;;;;7.78;1.20;;;;;;;;;;5042045;28;20071;-57
2021/06/01 16:14:55;;;;;;;5.90;1.00;;;;;;;;;;5039616;28;22413;-57
2021/06/01 16:23:05;;;;;;;7.82;1.10;;;;;;;;;;5044782;28;20129;-57
2021/06/01 16:31:26;;;;;;;5.53;1.10;;;;;;;;;;5046159;28;20078;-56
2021/06/01 16:42:11;;;;;;;6.78;0.85;;;;;;;;;;5043994;28;20055;-56
2021/06/01 17:06:04;;;;;;;7.72;0.90;;;;;;;;;;5047175;28;20037;-57
2021/06/01 17:13:37;;;;;;;9.32;1.10;;;;;;;;;;5044175;28;20037;-56
2021/06/01 17:16:05;;;;;;;8.48;1.02;;;;;;;;;;5043889;28;20146;-54
2021/06/01 17:34:58;;;;;;;6.13;1.02;;;;;;;;;;5041666;28;20064;-56
2021/06/01 17:37:25;;;;;;;5.63;1.17;;;;;;;;;;5041959;28;20032;-55
2021/06/01 17:39:51;;;;;;;8.77;1.33;;;;;;;;;;5042521;28;20035;-57
2021/06/01 17:42:18;;;;;;;7.22;0.98;;;;;;;;;;5042094;28;20041;-57
2021/06/01 17:44:46;;;;;;;7.20;0.95;;;;;;;;;;5042062;28;20086;-55
2021/06/01 17:47:16;;;;;;;8.55;1.08;;;;;;;;;;5042560;28;20063;-57
2021/06/01 17:49:46;;;;;;;8.10;1.00;;;;;;;;;;5039643;28;20036;-57
2021/06/01 17:52:12;;;;;;;8.30;1.50;;;;;;;;;;5042569;28;20059;-57
2021/06/01 17:54:38;;;;;;;7.05;0.90;;;;;;;;;;5040191;28;20712;-57
2021/06/01 17:57:04;;;;;;;5.50;0.88;;;;;;;;;;5039557;28;20056;-56
2021/06/01 17:59:30;;;;;;;3.78;0.82;;;;;;;;;;5046596;28;20486;-58
2021/06/01 18:01:57;;;;;;;7.28;0.82;;;;;;;;;;5043280;28;20041;-59
2021/06/01 18:04:25;;;;;;;6.22;0.88;;;;;;;;;;5056030;28;20131;-57
2021/06/01 18:06:57;;;;;;;8.43;1.05;;;;;;;;;;5041420;28;20041;-57
2021/06/01 18:37:17;;;;;;;6.43;0.90;;;;;;;;;;5041944;28;20544;-57
2021/06/01 19:50:27;;;;;;;3.83;0.90;;;;;;;;;;5041070;28;20115;-55
2021/06/01 19:52:55;;;;;;;6.53;1.38;;;;;;;;;;5041214;28;20053;-56
2021/06/01 19:55:22;;;;;;;8.63;0.93;;;;;;;;;;5040083;28;20049;-55
2021/06/01 19:57:51;;;;;;;17.13;2.00;;;;;;;;;;5043592;28;20304;-55
2021/06/01 20:00:18;;;;;;;5.45;1.20;;;;;;;;;;5046019;28;21395;-55
2021/06/01 20:02:44;;;;;;;7.05;1.00;;;;;;;;;;5046337;28;20125;-56
2021/06/01 20:05:11;;;;;;;4.15;0.90;;;;;;;;;;5047806;28;20048;-57
2021/06/01 20:07:37;;;;;;;5.47;1.00;;;;;;;;;;5046623;28;20029;-55
2021/06/01 20:10:03;;;;;;;5.30;0.98;;;;;;;;;;5045950;28;20041;-56
2021/06/01 20:12:29;;;;;;;5.75;0.90;;;;;;;;;;5046356;28;20083;-57
2021/06/01 20:14:56;;;;;;;9.82;1.00;;;;;;;;;;5046733;28;20658;-56
2021/06/01 20:17:27;;;;;;;5.90;1.02;;;;;;;;;;5047701;28;20123;-57
2021/06/01 20:19:54;;;;;;;4.82;0.90;;;;;;;;;;5049417;28;20045;-56
2021/06/01 20:22:30;;;;;;;6.32;1.08;;;;;;;;;;5050396;28;20032;-57
2021/06/01 20:25:01;;;;;;;7.65;1.00;;;;;;;;;;5046864;28;20060;-54
2021/06/01 20:27:27;;;;;;;7.45;1.00;;;;;;;;;;5047275;28;20082;-56
2021/06/01 20:29:57;;;;;;;6.28;0.90;;;;;;;;;;5047675;28;20123;-53
2021/06/01 20:35:13;;;;;;;7.82;1.17;;;;;;;;;;5045324;28;20064;-56
2021/06/01 20:37:40;;;;;;;6.20;1.00;;;;;;;;;;5048190;28;20473;-56
2021/06/01 20:40:06;;;;;;;6.43;0.88;;;;;;;;;;5045288;28;20124;-55
2021/06/01 20:42:33;;;;;;;7.47;1.00;;;;;;;;;;5044755;28;20510;-55
2021/06/01 20:45:00;;;;;;;7.20;1.20;;;;;;;;;;5044071;28;20140;-56
2021/06/01 20:47:26;;;;;;;6.50;1.17;;;;;;;;;;5044143;28;20048;-54
2021/06/01 20:49:52;;;;;;;4.32;1.00;;;;;;;;;;5044919;28;20052;-56
2021/06/01 20:52:18;;;;;;;5.70;0.95;;;;;;;;;;5041715;28;20040;-55
2021/06/01 20:54:44;;;;;;;8.00;1.00;;;;;;;;;;5043861;28;20048;-56
2021/06/01 20:57:11;;;;;;;5.65;1.00;;;;;;;;;;5043698;28;20041;-56
2021/06/01 20:59:36;;;;;;;6.45;1.60;;;;;;;;;;5043755;28;20048;-56
2021/06/01 21:02:02;;;;;;;6.85;1.10;;;;;;;;;;5043470;28;20404;-57
2021/06/01 21:04:29;;;;;;;4.00;0.93;;;;;;;;;;5042832;28;20076;-56
2021/06/01 21:06:55;;;;;;;21.00;1.55;;;;;;;;;;5043263;28;20070;-55
2021/06/01 21:09:21;;;;;;;6.18;1.10;;;;;;;;;;5043317;28;20045;-57
2021/06/01 21:11:48;;;;;;;4.80;0.90;;;;;;;;;;5042943;28;20040;-56
2021/06/01 21:14:13;;;;;;;3.35;1.00;;;;;;;;;;5057960;28;20134;-56
2021/06/01 21:16:39;;;;;;;6.30;0.80;;;;;;;;;;5040551;28;20513;-56
2021/06/01 21:19:05;;;;;;;9.35;1.10;;;;;;;;;;5042795;28;20638;-56
2021/06/01 21:21:32;;;;;;;5.25;1.00;;;;;;;;;;5042302;28;20037;-56
2021/06/01 21:23:58;;;;;;;7.72;0.80;;;;;;;;;;5042354;28;20041;-57
2021/06/01 21:26:24;;;;;;;7.38;0.90;;;;;;;;;;5042731;28;20063;-56
2021/06/01 21:28:50;;;;;;;6.57;0.90;;;;;;;;;;5043433;28;20037;-53
2021/06/01 21:31:16;;;;;;;4.40;1.08;;;;;;;;;;5043833;28;20444;-57
2021/06/01 21:33:50;;;;;;;8.85;1.20;;;;;;;;;;5042068;28;20059;-57
2021/06/01 21:36:17;;;;;;;10.18;1.63;;;;;;;;;;5043014;28;20037;-56
2021/06/01 21:38:45;;;;;;;6.53;0.88;;;;;;;;;;5040999;28;20599;-56
2021/06/01 21:41:11;;;;;;;8.10;0.93;;;;;;;;;;5043720;28;20868;-56
2021/06/01 21:43:38;;;;;;;5.38;0.90;;;;;;;;;;5041558;28;20033;-55
2021/06/01 21:46:06;;;;;;;6.53;1.50;;;;;;;;;;5043034;28;20541;-56